sensor_id;sensor_type;location;lat;lon;timestamp;pressure;altitude;pressure_sealevel;temperature;humidity
46291;BME280;32023;44.444;26.006;2022-07-06T00:02:11;100091.56;;;25.38;45.78
46291;BME280;32023;44.444;26.006;2022-07-06T00:04:43;100085.41;;;25.32;45.82
46291;BME280;32023;44.444;26.006;2022-07-06T00:07:12;100093.88;;;25.32;46.04
46291;BME280;32023;44.444;26.006;2022-07-06T00:09:40;100078.50;;;25.30;46.20
46291;BME280;32023;44.444;26.006;2022-07-06T00:12:07;100078.50;;;25.30;46.25
46291;BME280;32023;44.444;26.006;2022-07-06T00:14:34;100073.56;;;25.27;46.20
46291;BME280;32023;44.444;26.006;2022-07-06T00:17:06;100074.78;;;25.26;46.03
46291;BME280;32023;44.444;26.006;2022-07-06T00:19:32;100081.94;;;25.23;46.16
46291;BME280;32023;44.444;26.006;2022-07-06T00:22:03;100072.22;;;25.21;46.50
46291;BME280;32023;44.444;26.006;2022-07-06T00:24:30;100073.41;;;25.20;46.43
46291;BME280;32023;44.444;26.006;2022-07-06T00:26:56;100073.78;;;25.18;46.57
46291;BME280;32023;44.444;26.006;2022-07-06T00:29:25;100086.88;;;25.11;46.89
46291;BME280;32023;44.444;26.006;2022-07-06T00:31:54;100090.44;;;25.08;47.05
46291;BME280;32023;44.444;26.006;2022-07-06T00:34:26;100114.88;;;25.04;47.22
46291;BME280;32023;44.444;26.006;2022-07-06T00:37:12;100136.56;;;24.87;48.02
46291;BME280;32023;44.444;26.006;2022-07-06T00:39:49;100111.13;;;24.84;48.72
46291;BME280;32023;44.444;26.006;2022-07-06T00:45:25;100096.34;;;24.75;49.14
46291;BME280;32023;44.444;26.006;2022-07-06T00:47:54;100092.28;;;24.72;49.36
46291;BME280;32023;44.444;26.006;2022-07-06T00:50:23;100084.25;;;24.74;49.57
46291;BME280;32023;44.444;26.006;2022-07-06T00:53:02;100086.38;;;24.77;49.23
46291;BME280;32023;44.444;26.006;2022-07-06T00:55:36;100080.47;;;24.82;49.13
46291;BME280;32023;44.444;26.006;2022-07-06T00:58:15;100077.50;;;24.91;49.07
46291;BME280;32023;44.444;26.006;2022-07-06T01:00:44;100097.31;;;24.95;48.82
46291;BME280;32023;44.444;26.006;2022-07-06T01:03:13;100102.50;;;24.92;49.07
46291;BME280;32023;44.444;26.006;2022-07-06T01:05:47;100094.31;;;24.87;49.45
46291;BME280;32023;44.444;26.006;2022-07-06T01:08:14;100087.66;;;24.80;49.70
46291;BME280;32023;44.444;26.006;2022-07-06T01:11:00;100080.84;;;24.81;49.64
46291;BME280;32023;44.444;26.006;2022-07-06T01:16:45;100098.09;;;24.79;49.81
46291;BME280;32023;44.444;26.006;2022-07-06T01:19:33;100092.56;;;24.83;50.15
46291;BME280;32023;44.444;26.006;2022-07-06T01:22:15;100095.06;;;24.84;50.38
46291;BME280;32023;44.444;26.006;2022-07-06T01:24:50;100086.91;;;24.83;50.73
46291;BME280;32023;44.444;26.006;2022-07-06T01:27:30;100083.66;;;24.81;50.89
46291;BME280;32023;44.444;26.006;2022-07-06T01:33:50;100092.63;;;24.71;51.01
46291;BME280;32023;44.444;26.006;2022-07-06T01:36:17;100101.78;;;24.68;51.12
46291;BME280;32023;44.444;26.006;2022-07-06T01:38:55;100091.59;;;24.63;51.13
46291;BME280;32023;44.444;26.006;2022-07-06T01:41:27;100094.22;;;24.56;51.33
46291;BME280;32023;44.444;26.006;2022-07-06T01:43:56;100093.31;;;24.52;51.47
46291;BME280;32023;44.444;26.006;2022-07-06T01:46:22;100098.03;;;24.48;51.81
46291;BME280;32023;44.444;26.006;2022-07-06T01:48:48;100092.66;;;24.43;52.25
46291;BME280;32023;44.444;26.006;2022-07-06T01:51:15;100093.75;;;24.38;52.54
46291;BME280;32023;44.444;26.006;2022-07-06T01:53:42;100100.91;;;24.36;52.69
46291;BME280;32023;44.444;26.006;2022-07-06T01:56:09;100099.16;;;24.31;52.82
46291;BME280;32023;44.444;26.006;2022-07-06T01:58:43;100095.78;;;24.26;52.68
46291;BME280;32023;44.444;26.006;2022-07-06T02:01:11;100104.50;;;24.21;52.59
46291;BME280;32023;44.444;26.006;2022-07-06T02:03:38;100093.81;;;24.14;52.61
46291;BME280;32023;44.444;26.006;2022-07-06T02:06:11;100089.22;;;24.10;52.67
46291;BME280;32023;44.444;26.006;2022-07-06T02:08:49;100093.59;;;24.07;52.67
46291;BME280;32023;44.444;26.006;2022-07-06T02:11:17;100089.94;;;24.07;53.15
46291;BME280;32023;44.444;26.006;2022-07-06T02:13:44;100104.72;;;24.04;53.50
46291;BME280;32023;44.444;26.006;2022-07-06T02:16:13;100093.38;;;24.00;53.60
46291;BME280;32023;44.444;26.006;2022-07-06T02:18:49;100088.56;;;24.01;53.55
46291;BME280;32023;44.444;26.006;2022-07-06T02:21:23;100088.47;;;23.97;53.77
46291;BME280;32023;44.444;26.006;2022-07-06T02:24:00;100087.16;;;23.94;54.10
46291;BME280;32023;44.444;26.006;2022-07-06T02:26:27;100083.44;;;23.90;54.25
46291;BME280;32023;44.444;26.006;2022-07-06T02:28:53;100089.41;;;23.89;54.42
46291;BME280;32023;44.444;26.006;2022-07-06T02:31:20;100088.59;;;23.88;54.28
46291;BME280;32023;44.444;26.006;2022-07-06T02:33:46;100081.69;;;23.86;54.53
46291;BME280;32023;44.444;26.006;2022-07-06T02:36:19;100080.41;;;23.83;54.26
46291;BME280;32023;44.444;26.006;2022-07-06T02:38:45;100081.47;;;23.79;54.57
46291;BME280;32023;44.444;26.006;2022-07-06T02:41:14;100084.31;;;23.79;54.92
46291;BME280;32023;44.444;26.006;2022-07-06T02:43:40;100079.84;;;23.78;55.01
46291;BME280;32023;44.444;26.006;2022-07-06T02:46:10;100083.00;;;23.76;54.76
46291;BME280;32023;44.444;26.006;2022-07-06T02:48:42;100072.47;;;23.73;54.85
46291;BME280;32023;44.444;26.006;2022-07-06T02:51:15;100076.44;;;23.72;54.90
46291;BME280;32023;44.444;26.006;2022-07-06T02:53:41;100074.44;;;23.73;55.04
46291;BME280;32023;44.444;26.006;2022-07-06T02:56:10;100073.41;;;23.77;55.31
46291;BME280;32023;44.444;26.006;2022-07-06T02:58:41;100065.41;;;23.79;55.63
46291;BME280;32023;44.444;26.006;2022-07-06T03:01:07;100063.78;;;23.78;56.10
46291;BME280;32023;44.444;26.006;2022-07-06T03:03:34;100062.16;;;23.77;56.01
46291;BME280;32023;44.444;26.006;2022-07-06T03:06:00;100055.69;;;23.77;55.89
46291;BME280;32023;44.444;26.006;2022-07-06T03:08:30;100058.16;;;23.78;55.70
46291;BME280;32023;44.444;26.006;2022-07-06T03:10:56;100061.44;;;23.80;55.71
46291;BME280;32023;44.444;26.006;2022-07-06T03:13:23;100063.06;;;23.81;55.61
46291;BME280;32023;44.444;26.006;2022-07-06T03:15:52;100062.84;;;23.86;55.27
46291;BME280;32023;44.444;26.006;2022-07-06T03:18:19;100052.50;;;23.90;55.29
46291;BME280;32023;44.444;26.006;2022-07-06T03:20:46;100049.44;;;23.95;55.06
46291;BME280;32023;44.444;26.006;2022-07-06T03:23:21;100055.63;;;24.01;54.65
46291;BME280;32023;44.444;26.006;2022-07-06T03:25:48;100055.03;;;24.08;54.60
46291;BME280;32023;44.444;26.006;2022-07-06T03:28:14;100051.03;;;24.09;54.47
46291;BME280;32023;44.444;26.006;2022-07-06T03:30:41;100052.78;;;24.13;54.78
46291;BME280;32023;44.444;26.006;2022-07-06T03:33:15;100059.00;;;24.19;54.73
46291;BME280;32023;44.444;26.006;2022-07-06T03:35:44;100045.84;;;24.23;54.71
46291;BME280;32023;44.444;26.006;2022-07-06T03:38:10;100054.03;;;24.28;54.91
46291;BME280;32023;44.444;26.006;2022-07-06T03:40:37;100038.06;;;24.32;55.08
46291;BME280;32023;44.444;26.006;2022-07-06T03:43:15;100041.81;;;24.36;55.03
46291;BME280;32023;44.444;26.006;2022-07-06T03:45:46;100048.78;;;24.42;54.93
46291;BME280;32023;44.444;26.006;2022-07-06T03:48:17;100044.53;;;24.48;54.86
46291;BME280;32023;44.444;26.006;2022-07-06T03:53:56;100040.47;;;24.61;54.32
46291;BME280;32023;44.444;26.006;2022-07-06T03:56:31;100045.38;;;24.64;54.33
46291;BME280;32023;44.444;26.006;2022-07-06T03:59:05;100001.47;;;24.48;54.05
46291;BME280;32023;44.444;26.006;2022-07-06T04:01:34;100031.13;;;24.73;53.85
46291;BME280;32023;44.444;26.006;2022-07-06T04:04:19;100025.59;;;24.76;53.85
46291;BME280;32023;44.444;26.006;2022-07-06T04:06:45;100030.94;;;24.81;53.61
46291;BME280;32023;44.444;26.006;2022-07-06T04:09:19;100043.13;;;24.85;53.75
46291;BME280;32023;44.444;26.006;2022-07-06T04:11:53;100073.34;;;24.85;53.64
46291;BME280;32023;44.444;26.006;2022-07-06T04:14:22;100060.13;;;24.73;53.02
46291;BME280;32023;44.444;26.006;2022-07-06T04:17:15;100057.94;;;24.82;52.59
46291;BME280;32023;44.444;26.006;2022-07-06T04:20:14;100067.31;;;24.86;53.39
46291;BME280;32023;44.444;26.006;2022-07-06T04:22:50;100066.91;;;24.57;53.83
46291;BME280;32023;44.444;26.006;2022-07-06T04:25:17;100075.59;;;24.36;54.39
46291;BME280;32023;44.444;26.006;2022-07-06T04:27:43;100062.81;;;24.26;54.87
46291;BME280;32023;44.444;26.006;2022-07-06T04:30:30;100067.63;;;24.26;54.51
46291;BME280;32023;44.444;26.006;2022-07-06T04:32:56;100073.78;;;24.16;54.94
46291;BME280;32023;44.444;26.006;2022-07-06T04:35:22;100062.63;;;24.07;54.44
46291;BME280;32023;44.444;26.006;2022-07-06T04:37:49;100063.91;;;24.10;54.63
46291;BME280;32023;44.444;26.006;2022-07-06T04:40:15;100070.34;;;24.10;54.50
46291;BME280;32023;44.444;26.006;2022-07-06T04:42:45;100072.72;;;24.08;54.54
46291;BME280;32023;44.444;26.006;2022-07-06T04:45:14;100063.22;;;24.13;54.56
46291;BME280;32023;44.444;26.006;2022-07-06T04:47:46;100081.06;;;24.17;54.16
46291;BME280;32023;44.444;26.006;2022-07-06T04:50:16;100086.31;;;24.18;54.69
46291;BME280;32023;44.444;26.006;2022-07-06T04:52:43;100081.16;;;24.20;54.93
46291;BME280;32023;44.444;26.006;2022-07-06T04:55:22;100075.81;;;24.31;54.85
46291;BME280;32023;44.444;26.006;2022-07-06T04:57:52;100087.91;;;24.31;54.76
46291;BME280;32023;44.444;26.006;2022-07-06T05:00:28;100074.38;;;24.37;54.42
46291;BME280;32023;44.444;26.006;2022-07-06T05:03:08;100079.13;;;24.49;54.27
46291;BME280;32023;44.444;26.006;2022-07-06T05:05:34;100066.78;;;24.53;54.24
46291;BME280;32023;44.444;26.006;2022-07-06T05:08:01;100077.91;;;24.62;54.02
46291;BME280;32023;44.444;26.006;2022-07-06T05:10:30;100072.91;;;24.71;53.50
46291;BME280;32023;44.444;26.006;2022-07-06T05:12:57;100069.09;;;24.79;53.44
46291;BME280;32023;44.444;26.006;2022-07-06T05:15:23;100073.78;;;24.87;53.16
46291;BME280;32023;44.444;26.006;2022-07-06T05:17:52;100076.03;;;24.97;52.76
46291;BME280;32023;44.444;26.006;2022-07-06T05:20:21;100065.78;;;25.05;52.80
46291;BME280;32023;44.444;26.006;2022-07-06T05:25:31;100066.03;;;25.15;52.45
46291;BME280;32023;44.444;26.006;2022-07-06T05:28:00;100067.84;;;25.23;52.31
46291;BME280;32023;44.444;26.006;2022-07-06T05:30:27;100071.22;;;25.29;51.82
46291;BME280;32023;44.444;26.006;2022-07-06T05:32:56;100073.31;;;25.32;51.99
46291;BME280;32023;44.444;26.006;2022-07-06T05:35:25;100076.75;;;25.41;51.47
46291;BME280;32023;44.444;26.006;2022-07-06T05:37:52;100076.53;;;25.50;51.38
46291;BME280;32023;44.444;26.006;2022-07-06T05:40:39;100077.13;;;25.55;51.09
46291;BME280;32023;44.444;26.006;2022-07-06T05:43:06;100082.56;;;25.64;50.69
46291;BME280;32023;44.444;26.006;2022-07-06T05:45:32;100084.00;;;25.73;50.28
46291;BME280;32023;44.444;26.006;2022-07-06T05:47:59;100087.72;;;25.77;50.61
46291;BME280;32023;44.444;26.006;2022-07-06T05:50:54;100092.78;;;25.87;50.69
46291;BME280;32023;44.444;26.006;2022-07-06T05:53:23;100095.38;;;25.96;50.30
46291;BME280;32023;44.444;26.006;2022-07-06T05:55:52;100089.66;;;25.93;50.40
46291;BME280;32023;44.444;26.006;2022-07-06T05:58:45;100100.69;;;25.98;50.33
46291;BME280;32023;44.444;26.006;2022-07-06T06:01:23;100100.75;;;26.01;50.31
46291;BME280;32023;44.444;26.006;2022-07-06T06:03:53;100097.84;;;25.98;50.19
46291;BME280;32023;44.444;26.006;2022-07-06T06:06:25;100093.03;;;25.98;49.70
46291;BME280;32023;44.444;26.006;2022-07-06T06:08:54;100090.03;;;26.10;49.84
46291;BME280;32023;44.444;26.006;2022-07-06T06:11:23;100088.94;;;26.15;49.95
46291;BME280;32023;44.444;26.006;2022-07-06T06:25:48;100095.63;;;26.64;47.48
46291;BME280;32023;44.444;26.006;2022-07-06T06:28:34;100086.53;;;26.74;46.87
46291;BME280;32023;44.444;26.006;2022-07-06T06:31:13;100089.69;;;26.89;46.63
46291;BME280;32023;44.444;26.006;2022-07-06T06:33:59;100086.16;;;26.95;45.82
46291;BME280;32023;44.444;26.006;2022-07-06T06:47:51;100086.69;;;27.27;44.65
46291;BME280;32023;44.444;26.006;2022-07-06T07:40:44;100091.09;;;29.40;37.97
46291;BME280;32023;44.444;26.006;2022-07-06T08:04:30;100083.34;;;29.92;37.14
46291;BME280;32023;44.444;26.006;2022-07-06T08:07:23;100081.00;;;30.04;36.23
46291;BME280;32023;44.444;26.006;2022-07-06T08:10:06;100072.97;;;30.24;36.74
46291;BME280;32023;44.444;26.006;2022-07-06T08:12:52;100076.22;;;30.26;36.09
46291;BME280;32023;44.444;26.006;2022-07-06T08:15:28;100069.72;;;30.29;36.06
46291;BME280;32023;44.444;26.006;2022-07-06T08:18:06;100081.22;;;30.50;35.49
46291;BME280;32023;44.444;26.006;2022-07-06T08:20:44;100070.69;;;30.62;36.08
46291;BME280;32023;44.444;26.006;2022-07-06T08:23:54;100076.41;;;30.76;35.80
46291;BME280;32023;44.444;26.006;2022-07-06T08:26:45;100074.78;;;30.78;35.42
46291;BME280;32023;44.444;26.006;2022-07-06T08:29:40;100086.19;;;30.89;35.65
46291;BME280;32023;44.444;26.006;2022-07-06T08:32:30;100086.63;;;30.98;35.32
46291;BME280;32023;44.444;26.006;2022-07-06T08:35:07;100074.81;;;30.89;35.54
46291;BME280;32023;44.444;26.006;2022-07-06T08:37:39;100076.06;;;31.20;35.28
46291;BME280;32023;44.444;26.006;2022-07-06T08:40:28;100086.25;;;31.21;34.54
46291;BME280;32023;44.444;26.006;2022-07-06T08:43:21;100087.06;;;31.18;35.74
46291;BME280;32023;44.444;26.006;2022-07-06T08:46:00;100081.38;;;31.28;34.95
46291;BME280;32023;44.444;26.006;2022-07-06T08:48:43;100073.66;;;31.36;35.18
46291;BME280;32023;44.444;26.006;2022-07-06T08:51:22;100078.13;;;31.55;34.86
46291;BME280;32023;44.444;26.006;2022-07-06T08:54:17;100084.19;;;31.81;34.70
46291;BME280;32023;44.444;26.006;2022-07-06T08:56:52;100065.84;;;31.93;34.66
46291;BME280;32023;44.444;26.006;2022-07-06T08:59:36;100082.09;;;32.17;34.57
46291;BME280;32023;44.444;26.006;2022-07-06T09:02:18;100073.81;;;32.47;34.05
46291;BME280;32023;44.444;26.006;2022-07-06T09:04:55;100081.06;;;32.70;33.42
46291;BME280;32023;44.444;26.006;2022-07-06T09:07:51;100069.69;;;32.63;33.75
46291;BME280;32023;44.444;26.006;2022-07-06T09:10:28;100068.06;;;32.58;33.90
46291;BME280;32023;44.444;26.006;2022-07-06T09:18:58;100066.44;;;32.61;36.78
46291;BME280;32023;44.444;26.006;2022-07-06T09:21:33;100065.13;;;31.68;38.18
46291;BME280;32023;44.444;26.006;2022-07-06T09:24:17;100071.63;;;31.65;38.96
46291;BME280;32023;44.444;26.006;2022-07-06T09:26:58;100072.81;;;31.35;38.84
46291;BME280;32023;44.444;26.006;2022-07-06T09:29:44;100067.09;;;31.85;38.74
46291;BME280;32023;44.444;26.006;2022-07-06T09:32:42;100073.78;;;32.62;37.66
46291;BME280;32023;44.444;26.006;2022-07-06T09:35:41;100068.44;;;33.29;35.74
46291;BME280;32023;44.444;26.006;2022-07-06T09:41:06;100066.06;;;34.06;34.79
46291;BME280;32023;44.444;26.006;2022-07-06T09:46:12;100062.03;;;34.00;35.11
46291;BME280;32023;44.444;26.006;2022-07-06T09:48:46;100074.13;;;34.11;35.22
46291;BME280;32023;44.444;26.006;2022-07-06T09:51:40;100071.44;;;34.34;35.49
46291;BME280;32023;44.444;26.006;2022-07-06T09:54:18;100068.56;;;34.34;35.30
46291;BME280;32023;44.444;26.006;2022-07-06T09:56:47;100069.28;;;34.08;35.84
46291;BME280;32023;44.444;26.006;2022-07-06T10:02:41;100063.66;;;34.01;35.84
46291;BME280;32023;44.444;26.006;2022-07-06T10:05:18;100067.34;;;34.36;35.20
46291;BME280;32023;44.444;26.006;2022-07-06T10:08:01;100052.28;;;34.62;34.74
46291;BME280;32023;44.444;26.006;2022-07-06T10:10:45;100061.34;;;33.89;35.74
46291;BME280;32023;44.444;26.006;2022-07-06T10:13:23;100054.00;;;33.88;36.22
46291;BME280;32023;44.444;26.006;2022-07-06T10:18:54;100058.50;;;33.85;35.84
46291;BME280;32023;44.444;26.006;2022-07-06T10:21:29;100051.47;;;34.61;34.45
46291;BME280;32023;44.444;26.006;2022-07-06T10:27:38;100064.13;;;36.10;32.08
46291;BME280;32023;44.444;26.006;2022-07-06T10:30:37;100063.38;;;35.63;32.25
46291;BME280;32023;44.444;26.006;2022-07-06T10:33:19;100059.09;;;36.34;31.23
46291;BME280;32023;44.444;26.006;2022-07-06T10:35:46;100064.66;;;37.49;29.67
46291;BME280;32023;44.444;26.006;2022-07-06T10:38:32;100064.97;;;37.99;28.30
46291;BME280;32023;44.444;26.006;2022-07-06T10:44:23;100059.72;;;38.65;27.75
46291;BME280;32023;44.444;26.006;2022-07-06T10:47:17;100058.84;;;38.39;27.96
46291;BME280;32023;44.444;26.006;2022-07-06T10:50:03;100059.59;;;37.21;29.40
46291;BME280;32023;44.444;26.006;2022-07-06T10:53:02;100057.56;;;36.85;30.28
46291;BME280;32023;44.444;26.006;2022-07-06T10:55:44;100068.06;;;36.56;30.19
46291;BME280;32023;44.444;26.006;2022-07-06T11:01:25;100058.97;;;34.82;33.27
46291;BME280;32023;44.444;26.006;2022-07-06T11:04:17;100056.97;;;33.77;34.95
46291;BME280;32023;44.444;26.006;2022-07-06T11:07:23;100055.03;;;34.39;33.92
46291;BME280;32023;44.444;26.006;2022-07-06T11:10:25;100051.16;;;34.56;34.14
46291;BME280;32023;44.444;26.006;2022-07-06T11:13:30;100049.13;;;34.83;33.52
46291;BME280;32023;44.444;26.006;2022-07-06T11:16:03;100049.34;;;34.69;33.53
46291;BME280;32023;44.444;26.006;2022-07-06T11:18:42;100049.72;;;34.41;33.74
46291;BME280;32023;44.444;26.006;2022-07-06T11:21:59;100056.81;;;34.29;34.54
46291;BME280;32023;44.444;26.006;2022-07-06T11:24:51;100057.63;;;33.92;34.73
46291;BME280;32023;44.444;26.006;2022-07-06T11:27:36;100058.22;;;34.14;34.02
46291;BME280;32023;44.444;26.006;2022-07-06T11:30:42;100046.00;;;34.44;33.69
46291;BME280;32023;44.444;26.006;2022-07-06T11:33:09;100043.28;;;34.60;33.57
46291;BME280;32023;44.444;26.006;2022-07-06T11:36:18;100037.84;;;34.72;33.24
46291;BME280;32023;44.444;26.006;2022-07-06T11:38:49;100041.63;;;34.66;33.35
46291;BME280;32023;44.444;26.006;2022-07-06T11:41:22;100032.16;;;34.69;33.08
46291;BME280;32023;44.444;26.006;2022-07-06T11:43:56;100036.34;;;34.30;33.34
46291;BME280;32023;44.444;26.006;2022-07-06T11:46:31;100037.22;;;34.27;33.68
46291;BME280;32023;44.444;26.006;2022-07-06T11:49:02;100026.44;;;33.71;34.34
46291;BME280;32023;44.444;26.006;2022-07-06T11:51:32;100028.94;;;33.21;35.11
46291;BME280;32023;44.444;26.006;2022-07-06T11:54:13;100032.06;;;32.85;35.97
46291;BME280;32023;44.444;26.006;2022-07-06T11:56:51;100035.63;;;32.27;36.60
46291;BME280;32023;44.444;26.006;2022-07-06T11:59:39;100034.03;;;32.19;37.55
46291;BME280;32023;44.444;26.006;2022-07-06T12:02:31;100026.28;;;32.27;36.98
46291;BME280;32023;44.444;26.006;2022-07-06T12:05:08;100027.97;;;32.03;37.13
46291;BME280;32023;44.444;26.006;2022-07-06T12:07:35;100024.75;;;31.94;36.82
46291;BME280;32023;44.444;26.006;2022-07-06T12:10:01;100015.34;;;32.15;36.48
46291;BME280;32023;44.444;26.006;2022-07-06T12:12:28;100030.00;;;32.13;35.93
46291;BME280;32023;44.444;26.006;2022-07-06T12:14:55;100021.94;;;31.87;37.22
46291;BME280;32023;44.444;26.006;2022-07-06T12:17:26;100036.59;;;31.82;38.25
46291;BME280;32023;44.444;26.006;2022-07-06T12:20:31;100025.13;;;32.03;37.40
46291;BME280;32023;44.444;26.006;2022-07-06T12:23:11;100025.00;;;32.35;36.35
46291;BME280;32023;44.444;26.006;2022-07-06T12:25:37;100016.97;;;32.16;35.44
46291;BME280;32023;44.444;26.006;2022-07-06T12:31:53;99994.25;;;31.91;36.08
46291;BME280;32023;44.444;26.006;2022-07-06T12:34:42;99994.59;;;32.00;37.18
46291;BME280;32023;44.444;26.006;2022-07-06T12:48:54;99990.34;;;31.11;38.24
46291;BME280;32023;44.444;26.006;2022-07-06T12:54:50;99978.94;;;30.93;38.81
46291;BME280;32023;44.444;26.006;2022-07-06T12:57:49;99979.34;;;31.27;37.62
46291;BME280;32023;44.444;26.006;2022-07-06T13:00:26;99979.72;;;31.39;37.51
46291;BME280;32023;44.444;26.006;2022-07-06T13:03:01;99968.31;;;31.46;36.34
46291;BME280;32023;44.444;26.006;2022-07-06T13:06:01;99984.59;;;31.42;35.34
46291;BME280;32023;44.444;26.006;2022-07-06T13:09:02;99975.25;;;31.42;35.20
46291;BME280;32023;44.444;26.006;2022-07-06T13:11:32;99967.91;;;31.51;34.75
46291;BME280;32023;44.444;26.006;2022-07-06T13:14:00;99952.47;;;31.60;35.10
46291;BME280;32023;44.444;26.006;2022-07-06T13:16:30;99957.28;;;31.73;35.44
46291;BME280;32023;44.444;26.006;2022-07-06T13:25:11;99955.75;;;31.33;35.76
46291;BME280;32023;44.444;26.006;2022-07-06T13:27:40;99967.53;;;31.32;35.84
46291;BME280;32023;44.444;26.006;2022-07-06T13:30:17;99952.50;;;31.24;35.32
46291;BME280;32023;44.444;26.006;2022-07-06T13:33:04;99968.34;;;30.90;35.22
46291;BME280;32023;44.444;26.006;2022-07-06T13:35:39;99970.38;;;30.82;35.52
46291;BME280;32023;44.444;26.006;2022-07-06T13:38:06;99969.19;;;30.80;36.28
46291;BME280;32023;44.444;26.006;2022-07-06T13:40:42;99970.00;;;30.70;37.10
46291;BME280;32023;44.444;26.006;2022-07-06T13:46:07;99965.53;;;30.83;37.07
46291;BME280;32023;44.444;26.006;2022-07-06T13:48:55;99962.66;;;30.86;37.84
46291;BME280;32023;44.444;26.006;2022-07-06T13:51:27;99958.19;;;30.68;37.90
46291;BME280;32023;44.444;26.006;2022-07-06T13:53:55;99963.50;;;30.73;37.87
46291;BME280;32023;44.444;26.006;2022-07-06T13:56:24;99959.44;;;30.81;38.02
46291;BME280;32023;44.444;26.006;2022-07-06T13:58:55;99956.19;;;30.89;37.71
46291;BME280;32023;44.444;26.006;2022-07-06T14:01:27;99963.09;;;30.85;37.13
46291;BME280;32023;44.444;26.006;2022-07-06T14:07:21;99952.94;;;30.70;37.51
46291;BME280;32023;44.444;26.006;2022-07-06T14:10:10;99958.19;;;30.61;37.87
46291;BME280;32023;44.444;26.006;2022-07-06T14:12:39;99962.25;;;30.45;38.06
46291;BME280;32023;44.444;26.006;2022-07-06T14:15:32;99971.53;;;30.39;38.02
46291;BME280;32023;44.444;26.006;2022-07-06T14:18:09;99961.00;;;30.36;37.07
46291;BME280;32023;44.444;26.006;2022-07-06T14:27:43;99956.81;;;29.98;36.08
46291;BME280;32023;44.444;26.006;2022-07-06T14:30:32;99951.53;;;29.96;35.75
46291;BME280;32023;44.444;26.006;2022-07-06T14:33:22;99961.69;;;29.97;36.73
46291;BME280;32023;44.444;26.006;2022-07-06T14:37:16;99952.34;;;29.90;36.70
46291;BME280;32023;44.444;26.006;2022-07-06T14:40:13;99947.88;;;29.92;37.22
46291;BME280;32023;44.444;26.006;2022-07-06T14:43:02;99947.03;;;29.88;37.92
46291;BME280;32023;44.444;26.006;2022-07-06T14:45:31;99951.03;;;29.84;37.96
46291;BME280;32023;44.444;26.006;2022-07-06T14:48:04;99948.66;;;29.86;37.94
46291;BME280;32023;44.444;26.006;2022-07-06T14:50:37;99949.88;;;29.92;37.29
46291;BME280;32023;44.444;26.006;2022-07-06T14:56:24;99953.47;;;29.82;37.99
46291;BME280;32023;44.444;26.006;2022-07-06T14:58:58;99954.13;;;29.47;38.86
46291;BME280;32023;44.444;26.006;2022-07-06T15:01:24;99952.47;;;29.42;39.64
46291;BME280;32023;44.444;26.006;2022-07-06T15:04:08;99957.28;;;29.35;39.41
46291;BME280;32023;44.444;26.006;2022-07-06T15:06:49;99945.84;;;29.24;38.77
46291;BME280;32023;44.444;26.006;2022-07-06T15:09:26;99952.69;;;29.19;39.29
46291;BME280;32023;44.444;26.006;2022-07-06T15:12:18;99964.78;;;29.06;38.34
46291;BME280;32023;44.444;26.006;2022-07-06T15:17:38;99969.00;;;28.79;42.28
46291;BME280;32023;44.444;26.006;2022-07-06T15:20:10;99977.28;;;28.57;43.50
46291;BME280;32023;44.444;26.006;2022-07-06T15:35:54;99967.38;;;27.44;49.32
46291;BME280;32023;44.444;26.006;2022-07-06T15:38:24;99959.22;;;27.39;49.83
46291;BME280;32023;44.444;26.006;2022-07-06T16:07:41;99976.28;;;26.94;52.38
46291;BME280;32023;44.444;26.006;2022-07-06T16:10:07;99975.41;;;26.90;52.50
46291;BME280;32023;44.444;26.006;2022-07-06T16:12:34;99950.81;;;26.67;52.17
46291;BME280;32023;44.444;26.006;2022-07-06T16:15:00;99980.88;;;26.79;52.12
46291;BME280;32023;44.444;26.006;2022-07-06T16:17:28;99966.19;;;26.70;52.19
46291;BME280;32023;44.444;26.006;2022-07-06T16:19:57;99974.16;;;26.64;52.16
46291;BME280;32023;44.444;26.006;2022-07-06T16:22:24;99983.22;;;26.51;52.36
46291;BME280;32023;44.444;26.006;2022-07-06T16:24:54;99987.59;;;26.48;52.37
46291;BME280;32023;44.444;26.006;2022-07-06T16:27:54;99982.63;;;26.42;52.53
46291;BME280;32023;44.444;26.006;2022-07-06T16:30:26;99987.53;;;26.45;52.18
46291;BME280;32023;44.444;26.006;2022-07-06T16:32:55;99981.81;;;26.41;52.32
46291;BME280;32023;44.444;26.006;2022-07-06T16:35:21;99981.69;;;26.34;52.08
46291;BME280;32023;44.444;26.006;2022-07-06T16:37:49;99981.63;;;26.30;52.03
46291;BME280;32023;44.444;26.006;2022-07-06T16:40:32;99984.59;;;26.18;52.30
46291;BME280;32023;44.444;26.006;2022-07-06T16:43:03;99978.84;;;26.15;52.41
46291;BME280;32023;44.444;26.006;2022-07-06T16:45:30;99977.69;;;26.16;52.67
46291;BME280;32023;44.444;26.006;2022-07-06T16:47:59;99980.38;;;26.09;52.75
46291;BME280;32023;44.444;26.006;2022-07-06T16:50:28;99987.06;;;26.01;52.31
46291;BME280;32023;44.444;26.006;2022-07-06T16:52:58;99987.06;;;26.01;52.56
46291;BME280;32023;44.444;26.006;2022-07-06T16:55:25;99980.66;;;26.04;52.20
46291;BME280;32023;44.444;26.006;2022-07-06T16:57:57;99982.72;;;26.07;51.88
46291;BME280;32023;44.444;26.006;2022-07-06T17:00:26;99988.38;;;26.07;51.95
46291;BME280;32023;44.444;26.006;2022-07-06T17:02:56;99993.88;;;26.00;52.48
46291;BME280;32023;44.444;26.006;2022-07-06T17:05:28;99984.09;;;25.94;53.22
46291;BME280;32023;44.444;26.006;2022-07-06T17:07:54;99983.94;;;25.86;53.77
46291;BME280;32023;44.444;26.006;2022-07-06T17:10:26;99992.63;;;25.78;54.76